Latest Weather Observations for Derby

IDW60801

Issued at 10:53 am WST Monday 27 January 2020 (issued every 10 minutes, with the page automatically refreshed every 10 minutes)

About weather observations | Map of weather stations | Latest weather observations for WA | Other Formats
Station Details ID: 003032 Name: DERBY AERO Lat: -17.37 Lon: 123.66 Height: 6.2 m
Data from the previous 72 hours. | See also: Recent months at Derby
Date/Time
WST
Temp
°C
App
Temp
°C
Dew
Point
°C
Rel
Hum
%
Delta-T
°C
Wind Press
QNH
hPa
Press
MSL
hPa
Rain since
9am
mm
Dir  Spd
km/h
Gust
km/h
Spd
kts
Gust
kts
27/10:30am 32.5 35.6 24.8 64 5.4 NW 17 24 9 13 1009.3 1009.3 0.0
27/10:00am 32.1 35.7 24.4 63 5.4 NNW 13 17 7 9 1009.4 1009.4 0.0
27/09:30am 32.1 35.8 25.2 67 4.9 NNW 15 22 8 12 1009.5 1009.5 0.0
27/09:00am 31.6 35.7 25.2 69 4.5 NW 13 19 7 10 1009.6 1009.6 0.0
27/08:30am 31.0 34.5 24.9 70 4.3 NW 15 20 8 11 1009.5 1009.5 0.0
27/08:00am 30.9 35.5 25.3 72 4.0 NW 11 17 6 9 1009.4 1009.4 0.0
27/07:30am 30.1 35.4 25.2 75 3.5 NW 7 11 4 6 1009.2 1009.2 0.0
27/07:00am 29.7 35.3 25.4 78 3.0 NW 6 9 3 5 1008.9 1008.9 0.0
27/06:30am 28.7 34.6 25.3 82 2.4 NW 4 7 2 4 1008.5 1008.5 0.0
27/06:00am 27.7 34.3 25.3 87 1.7 CALM 0 0 0 0 1008.2 1008.2 0.0
27/05:30am 27.3 32.8 25.3 89 1.4 W 6 7 3 4 1007.8 1007.8 0.0
27/05:00am 27.5 33.1 25.5 89 1.4 SSW 6 9 3 5 1007.6 1007.6 0.0
27/04:30am 27.5 32.1 25.3 88 1.5 WSW 11 13 6 7 1007.3 1007.3 0.0
27/04:00am 27.7 33.2 25.3 87 1.7 WSW 6 7 3 4 1007.1 1007.1 0.0
27/03:30am 27.5 32.3 25.1 87 1.7 W 9 13 5 7 1006.8 1006.8 0.0
27/03:00am 27.7 32.5 25.1 86 1.8 SW 9 11 5 6 1007.2 1007.2 0.0
27/02:30am 27.7 31.9 24.7 84 2.1 W 11 13 6 7 1007.2 1007.2 0.0
27/02:00am 27.7 32.3 24.7 84 2.1 WSW 9 11 5 6 1007.5 1007.5 0.0
27/01:30am 28.1 32.0 24.3 80 2.6 WSW 11 15 6 8 1007.4 1007.4 0.0
27/01:00am 28.5 31.6 24.1 77 3.1 WSW 15 19 8 10 1007.8 1007.8 0.0
27/12:30am 28.5 32.7 24.7 80 2.7 WSW 11 17 6 9 1008.0 1008.0 0.0
27/12:00am 28.3 32.9 24.7 81 2.5 WSW 9 13 5 7 1008.3 1008.3 0.0
 
Date/Time
WST
Temp
°C
App
Temp
°C
Dew
Point
°C
Rel
Hum
%
Delta-T
°C
Wind Press
QNH
hPa
Press
MSL
hPa
Rain since
9am
mm
Dir  Spd
km/h
Gust
km/h
Spd
kts
Gust
kts
26/11:30pm 28.4 33.0 24.8 81 2.5 WSW 9 11 5 6 1008.6 1008.6 0.0
26/11:00pm 28.6 33.1 25.2 82 2.4 W 11 13 6 7 1008.6 1008.6 0.0
26/10:30pm 29.2 32.5 24.5 76 3.3 WSW 15 17 8 9 1008.7 1008.7 0.0
26/10:00pm 30.3 33.6 25.1 73 3.7 WNW 17 22 9 12 1008.5 1008.5 0.0
26/09:30pm 30.7 33.7 25.3 73 3.8 NW 19 24 10 13 1008.2 1008.2 0.0
26/09:00pm 30.9 35.0 26.4 77 3.2 NNW 17 20 9 11 1008.0 1008.0 0.0
26/08:30pm 30.7 35.3 26.0 76 3.3 N 13 17 7 9 1007.5 1007.5 0.0
26/08:00pm 30.8 35.1 26.1 76 3.4 N 15 20 8 11 1007.3 1007.3 0.0
26/07:30pm 30.9 35.7 26.2 76 3.4 N 13 19 7 10 1007.1 1007.1 0.0
26/07:00pm 31.1 34.8 25.7 73 3.8 NNW 17 24 9 13 1006.7 1006.7 0.0
26/06:30pm 31.5 34.7 24.9 68 4.6 N 17 20 9 11 1006.4 1006.4 0.0
26/06:00pm 32.1 34.3 24.2 63 5.5 NNW 20 26 11 14 1006.3 1006.3 0.0
26/05:30pm 32.5 34.0 23.7 59 6.1 NNW 22 28 12 15 1006.0 1005.9 0.0
26/05:00pm 32.4 33.5 23.6 59 6.1 NNW 24 28 13 15 1006.1 1006.1 0.0
26/04:30pm 33.4 34.9 23.7 56 6.8 NNW 22 28 12 15 1006.1 1006.1 0.0
26/04:00pm 33.9 35.0 23.6 55 7.2 NNW 24 28 13 15 1006.1 1006.1 0.0
26/03:30pm 33.9 34.4 22.7 52 7.7 NNW 24 33 13 18 1006.2 1006.2 0.0
26/03:00pm 34.2 34.6 23.2 52 7.6 NW 26 32 14 17 1006.3 1006.3 0.0
26/02:30pm 34.2 34.6 23.2 52 7.6 NW 26 33 14 18 1006.5 1006.5 0.0
26/02:00pm 33.8 33.7 23.5 55 7.2 NW 30 37 16 20 1006.6 1006.6 0.0
26/01:30pm 33.6 33.7 23.9 57 6.8 NW 30 39 16 21 1006.7 1006.7 0.0
26/01:00pm 33.2 33.8 23.5 56 6.7 NW 26 35 14 19 1007.1 1007.1 0.0
26/12:30pm 33.4 32.9 22.2 52 7.7 NNW 28 37 15 20 1007.4 1007.4 0.0
26/12:00pm 33.8 34.1 22.2 50 7.9 NW 24 32 13 17 1007.8 1007.8 0.0
26/11:30am 33.1 33.9 23.1 55 6.9 NW 24 30 13 16 1008.2 1008.2 0.0
26/11:00am 32.4 33.0 21.3 52 7.5 NNW 20 28 11 15 1008.6 1008.6 0.0
26/10:30am 31.5 32.8 20.8 53 7.1 N 15 22 8 12 1009.1 1009.1 0.0
26/10:00am 30.9 31.7 21.4 57 6.4 NNE 19 28 10 15 1009.5 1009.5 0.0
26/09:30am 29.3 30.1 21.3 62 5.3 NNE 19 26 10 14 1009.9 1009.9 0.0
26/09:00am 29.1 29.7 21.3 62 5.2 NE 20 32 11 17 1010.1 1010.1 0.0
26/08:30am 28.6 28.7 21.1 64 5.0 NE 22 33 12 18 1010.2 1010.2 0.0
26/08:00am 28.1 28.3 21.4 67 4.5 ENE 22 32 12 17 1010.4 1010.4 0.0
26/07:30am 27.1 27.3 22.1 74 3.4 ENE 24 35 13 19 1010.2 1010.2 0.0
26/07:00am 26.8 27.6 21.8 74 3.3 NE 20 32 11 17 1009.9 1009.9 0.0
26/06:30am 27.5 28.6 22.0 72 3.7 ENE 19 35 10 19 1009.9 1009.9 0.0
26/06:27am 27.7 29.4 21.7 70 4.0 ENE 15 35 8 19 1010.0 1010.0 0.0
26/06:00am 29.3 34.4 25.5 80 2.7 NE 9 13 5 7 1009.4 1009.4 0.0
26/05:30am 29.0 32.0 25.2 80 2.7 NW 19 22 10 12 1007.9 1007.9 0.0
26/05:00am 28.8 32.3 25.4 82 2.4 NW 17 20 9 11 1007.4 1007.4 0.0
26/04:30am 29.1 32.6 25.5 81 2.5 NW 17 20 9 11 1007.5 1007.5 0.0
26/04:00am 29.1 31.8 25.7 82 2.4 NW 22 28 12 15 1007.2 1007.2 0.0
26/03:30am 29.1 32.4 25.7 82 2.4 WNW 19 24 10 13 1007.5 1007.5 0.0
26/03:00am 29.4 32.2 25.8 81 2.6 NW 22 28 12 15 1007.3 1007.3 0.0
26/02:30am 29.4 32.4 26.2 83 2.3 NW 22 28 12 15 1007.1 1007.1 0.0
26/02:00am 29.2 32.2 26.2 84 2.1 NW 22 28 12 15 1006.8 1006.8 0.0
26/01:30am 29.3 32.2 25.9 82 2.4 NW 22 28 12 15 1006.9 1006.9 0.0
26/01:00am 29.2 32.2 26.2 84 2.1 NW 22 28 12 15 1006.8 1006.8 0.0
26/12:56am 29.2 32.2 26.2 84 2.1 NW 22 26 12 14 1006.7 1006.7 0.0
26/12:41am 29.2 32.8 26.4 85 2.0 NW 20 26 11 14 1006.8 1006.8 0.0
26/12:30am 29.2 31.9 26.2 84 2.1 NW 24 28 13 15 1006.8 1006.8 0.0
26/12:00am 29.4 31.7 26.2 83 2.3 NW 26 32 14 17 1006.9 1006.9 0.0
 
Date/Time
WST
Temp
°C
App
Temp
°C
Dew
Point
°C
Rel
Hum
%
Delta-T
°C
Wind Press
QNH
hPa
Press
MSL
hPa
Rain since
9am
mm
Dir  Spd
km/h
Gust
km/h
Spd
kts
Gust
kts
25/11:30pm 29.6 32.2 26.6 84 2.1 NNW 26 32 14 17 1006.9 1006.9 0.0
25/11:00pm 29.9 32.1 26.7 83 2.3 NW 28 32 15 17 1007.0 1007.0 0.0
25/10:30pm 30.1 32.3 26.7 82 2.4 NW 28 32 15 17 1007.0 1007.0 0.0
25/10:00pm 30.6 32.8 26.7 80 2.8 NW 28 33 15 18 1007.0 1007.0 0.0
25/09:30pm 30.8 34.6 27.8 84 2.2 NNW 24 30 13 16 1006.6 1006.6 0.0
25/09:00pm 31.1 34.2 27.4 81 2.7 NNW 26 32 14 17 1006.3 1006.3 0.0
25/08:30pm 31.4 34.6 27.5 80 2.8 NNW 26 33 14 18 1006.0 1005.9 0.0
25/08:00pm 31.6 35.2 27.5 79 3.0 NNW 24 32 13 17 1005.4 1005.3 0.0
25/07:30pm 31.8 35.4 27.5 78 3.1 NNW 24 33 13 18 1005.2 1005.1 0.0
25/07:00pm 32.1 35.8 27.1 75 3.6 NNW 22 32 12 17 1004.9 1004.8 0.0
25/06:30pm 32.5 35.3 27.0 73 4.0 NNW 26 32 14 17 1004.5 1004.4 0.0
25/06:00pm 33.0 35.7 27.3 72 4.1 NNW 28 33 15 18 1004.2 1004.1 0.0
25/05:30pm 33.7 35.8 27.0 68 4.9 NNW 30 35 16 19 1004.0 1003.9 0.0
25/05:00pm 34.0 36.7 26.2 63 5.6 NNW 24 32 13 17 1003.8 1003.7 0.0
25/04:30pm 34.0 36.9 26.5 65 5.4 NNW 24 28 13 15 1003.8 1003.7 0.0
25/04:00pm 34.5 37.1 26.1 61 6.0 NNW 24 30 13 16 1003.8 1003.7 0.0
25/03:30pm 35.3 38.7 25.8 58 6.8 NW 19 24 10 13 1004.0 1003.9 0.0
25/03:00pm 36.1 39.9 25.9 55 7.3 NW 17 22 9 12 1004.3 1004.2 0.0
25/02:30pm 35.7 39.6 25.5 55 7.3 NW 15 20 8 11 1004.7 1004.6 0.0
25/02:00pm 35.3 38.8 25.5 57 7.0 NNW 17 22 9 12 1005.2 1005.1 0.0
25/01:30pm 35.4 38.2 25.0 55 7.4 NW 19 24 10 13 1005.3 1005.2 0.0
25/01:00pm 35.7 38.7 25.5 55 7.3 NW 20 24 11 13 1005.6 1005.5 0.0
25/12:30pm 34.7 38.6 26.1 61 6.2 NW 17 22 9 12 1006.0 1005.9 0.0
25/12:00pm 35.2 39.2 25.1 56 7.2 W 13 20 7 11 1006.5 1006.5 0.0
25/11:30am 35.0 38.5 24.9 55 7.2 W 15 24 8 13 1007.1 1007.1 0.0
25/11:00am 34.2 38.6 25.6 61 6.1 W 13 19 7 10 1007.8 1007.8 0.0
25/10:30am 33.5 37.6 25.7 63 5.6 WSW 15 22 8 12 1008.3 1008.3 0.0
25/10:00am 33.2 37.1 25.5 64 5.5 W 15 24 8 13 1008.6 1008.6 0.0
25/09:30am 32.2 36.8 26.5 72 4.1 W 15 24 8 13 1008.6 1008.6 0.0
25/09:00am 31.8 35.7 26.1 72 4.1 W 17 20 9 11 1008.7 1008.7 0.0
25/08:30am 30.9 34.4 25.5 73 3.8 WSW 17 20 9 11 1008.8 1008.8 0.0
25/08:00am 29.8 33.7 25.5 78 3.0 W 15 22 8 12 1008.8 1008.8 0.0
25/07:30am 29.6 33.6 25.6 79 2.8 W 15 19 8 10 1008.6 1008.6 0.0
25/07:00am 29.2 33.4 26.0 83 2.3 W 15 17 8 9 1008.5 1008.5 0.0
25/06:30am 28.8 32.8 25.6 83 2.3 WSW 15 19 8 10 1008.3 1008.3 0.0
25/06:00am 28.5 32.0 25.5 84 2.1 W 17 22 9 12 1008.1 1008.1 0.0
25/05:30am 28.3 31.8 25.5 85 2.0 W 17 20 9 11 1007.6 1007.6 0.0
25/05:00am 28.3 31.1 25.3 84 2.1 WSW 20 22 11 12 1007.2 1007.2 0.0
25/04:30am 28.2 31.8 25.6 86 1.8 W 17 19 9 10 1007.1 1007.1 0.0
25/04:00am 28.3 32.5 25.9 87 1.7 W 15 17 8 9 1007.0 1007.0 0.0
25/03:30am 28.3 33.2 25.9 87 1.7 W 11 15 6 8 1007.0 1007.0 0.0
25/03:00am 28.5 33.4 25.9 86 1.8 WSW 11 13 6 7 1007.1 1007.1 0.0
25/02:30am 28.4 33.4 26.0 87 1.7 W 11 13 6 7 1007.0 1007.0 0.0
25/02:00am 28.6 32.7 25.8 85 2.0 W 15 17 8 9 1006.9 1006.9 0.0
25/01:30am 28.4 33.3 25.8 86 1.8 W 11 13 6 7 1007.0 1007.0 0.0
25/01:00am 28.6 34.5 26.2 87 1.7 WSW 7 9 4 5 1006.9 1006.9 0.0
25/12:30am 28.9 34.5 26.3 86 1.9 WSW 9 11 5 6 1007.3 1007.3 0.0
25/12:00am 29.3 33.6 26.1 83 2.3 WSW 15 20 8 11 1007.7 1007.7 0.0
 
Date/Time
WST
Temp
°C
App
Temp
°C
Dew
Point
°C
Rel
Hum
%
Delta-T
°C
Wind Press
QNH
hPa
Press
MSL
hPa
Rain since
9am
mm
Dir  Spd
km/h
Gust
km/h
Spd
kts
Gust
kts
24/11:30pm 29.7 33.6 26.1 81 2.6 W 17 19 9 10 1007.8 1007.8 0.0
24/11:00pm 29.9 34.1 25.9 79 2.8 W 15 19 8 10 1008.1 1008.1 0.0
24/10:30pm 30.4 33.7 25.7 76 3.3 W 19 22 10 12 1008.3 1008.3 0.0
24/10:00pm 30.8 35.1 26.1 76 3.4 W 15 19 8 10 1008.4 1008.4 0.0
24/09:30pm 31.0 34.7 26.3 76 3.4 WNW 19 24 10 13 1008.1 1008.1 0.0
24/09:00pm 31.3 35.0 26.6 76 3.4 NW 20 26 11 14 1007.7 1007.7 0.0
24/08:30pm 31.7 36.1 27.6 79 3.0 NW 20 24 11 13 1007.2 1007.2 0.0
24/08:00pm 31.8 36.3 27.7 79 3.0 NNW 20 24 11 13 1006.8 1006.8 0.0
24/07:30pm 31.8 36.0 27.0 76 3.5 NNW 19 24 10 13 1006.4 1006.4 0.0
24/07:00pm 31.7 35.1 26.7 75 3.6 NNW 22 28 12 15 1006.0 1005.9 0.0
24/06:30pm 31.9 35.1 26.4 72 3.9 NNW 22 28 12 15 1005.6 1005.5 0.0
24/06:00pm 32.2 35.1 26.5 72 4.1 NNW 24 28 13 15 1005.4 1005.3 0.0
24/05:30pm 32.7 35.4 26.3 69 4.6 NNW 24 32 13 17 1005.2 1005.1 0.0
24/05:00pm 33.2 35.7 26.0 66 5.2 NNW 24 28 13 15 1005.2 1005.1 0.0
24/04:30pm 34.0 37.0 26.2 63 5.6 NNW 22 26 12 14 1005.2 1005.1 0.0
24/04:00pm 33.9 36.2 25.6 62 5.9 NNW 24 30 13 16 1005.5 1005.4 0.0
24/03:30pm 33.7 35.4 25.9 63 5.6 NNW 28 33 15 18 1005.7 1005.6 0.0
24/03:00pm 33.4 34.7 25.9 65 5.4 NW 30 35 16 19 1006.1 1006.1 0.0
24/02:30pm 33.8 35.6 25.5 62 5.9 NW 26 32 14 17 1006.4 1006.4 0.0
24/02:00pm 33.8 35.8 25.8 63 5.7 NW 26 33 14 18 1006.8 1006.8 0.0
24/01:30pm 34.0 36.3 25.7 62 5.9 NW 24 32 13 17 1007.2 1007.2 0.0
24/01:00pm 33.7 36.2 25.4 62 5.9 NW 22 32 12 17 1007.4 1007.4 0.0
24/12:30pm 34.5 37.9 25.3 58 6.5 NW 17 22 9 12 1007.9 1007.9 0.0
24/12:00pm 34.1 38.4 24.9 58 6.5 NNW 11 24 6 13 1008.5 1008.5 0.0
24/11:30am 33.6 37.1 24.2 58 6.6 NNW 13 19 7 10 1008.8 1008.8 0.0
24/11:00am 33.1 36.9 24.0 59 6.4 N 11 17 6 9 1009.0 1009.0 0.0

Other formats

Comma delimited format used in spreadsheet applications
http://www.bom.gov.au/fwo/IDW60801/IDW60801.95205.axf

JavaScript Object Notation format (JSON) in row-major order
http://www.bom.gov.au/fwo/IDW60801/IDW60801.95205.json

Data quality

Most of these data are generated automatically and are frequently updated. Quality checks on data are not normally performed. It is possible for incorrect values to appear. Refer to information at About Latest Weather Observations and please check the disclaimer before using these data.